createdAt,value
2019-05-23T00:00:27.504Z,68.8
2019-05-23T00:01:46.021Z,68.96
2019-05-23T00:02:38.288Z,69.67
2019-05-23T00:03:56.717Z,69.57
2019-05-23T00:04:49.087Z,69.35
2019-05-23T00:05:15.256Z,69.64
2019-05-23T00:06:07.658Z,69.86
2019-05-23T00:07:26.111Z,69.48
2019-05-23T00:08:18.410Z,69.76
2019-05-23T00:08:44.587Z,69.76
2019-05-23T00:09:36.880Z,69.86
2019-05-23T00:10:29.230Z,69.48
2019-05-23T00:10:55.365Z,69.38
2019-05-23T00:11:48.663Z,69.29
2019-05-23T00:12:14.776Z,69.19
2019-05-23T00:13:07.083Z,69.48
2019-05-23T00:13:59.410Z,69.48
2019-05-23T00:14:25.575Z,68.8
2019-05-23T00:15:17.917Z,68.9
2019-05-23T00:16:36.349Z,68.8
2019-05-23T00:17:28.680Z,69.19
2019-05-23T00:17:54.848Z,68.8
2019-05-23T00:18:47.234Z,68.71
2019-05-23T00:19:39.555Z,68.62
2019-05-23T00:20:05.683Z,68.33
2019-05-23T00:20:58.014Z,68.42
2019-05-23T00:22:16.455Z,68.71
2019-05-23T00:23:08.776Z,69
2019-05-23T00:23:34.916Z,68.71
2019-05-23T00:24:27.229Z,68.71
2019-05-23T00:25:19.570Z,69.38
2019-05-23T00:25:45.743Z,69.57
2019-05-23T00:26:38.033Z,69
2019-05-23T00:27:56.453Z,69.38
2019-05-23T00:28:48.763Z,69.67
2019-05-23T00:29:16.887Z,69.57
2019-05-23T00:30:36.324Z,69.86
2019-05-23T00:31:28.652Z,70.05
2019-05-23T00:31:54.794Z,70.24
2019-05-23T00:32:47.127Z,70.24
2019-05-23T00:33:39.432Z,70.15
2019-05-23T00:34:05.576Z,70.43
2019-05-23T00:34:57.974Z,70.34
2019-05-23T00:36:16.434Z,70.34
2019-05-23T00:37:08.713Z,70.34
2019-05-23T00:37:34.888Z,69.86
2019-05-23T00:38:27.178Z,70.34
2019-05-23T00:39:19.540Z,69.67
2019-05-23T00:39:45.736Z,69.67
2019-05-23T00:40:38.030Z,70.34
2019-05-23T00:41:56.487Z,70.43
2019-05-23T00:42:48.775Z,70.43
2019-05-23T00:43:14.942Z,70.24
2019-05-23T00:44:07.229Z,70.34
2019-05-23T00:44:33.488Z,70.62
2019-05-23T00:44:59.604Z,70.62
2019-05-23T00:45:51.887Z,70.91
2019-05-23T00:46:18.021Z,70.97
2019-05-23T00:47:10.335Z,70.91
2019-05-23T00:48:28.819Z,71.07
2019-05-23T00:49:21.168Z,71.07
2019-05-23T00:49:47.305Z,71.11
2019-05-23T00:50:39.653Z,71.07
2019-05-23T00:51:59.111Z,70.97
2019-05-23T00:52:51.393Z,71.11
2019-05-23T00:53:17.553Z,70.87
2019-05-23T00:54:09.900Z,70.68
2019-05-23T00:55:02.240Z,70.78
2019-05-23T00:55:28.374Z,70.91
2019-05-23T00:56:20.664Z,70.81
2019-05-23T00:57:39.204Z,70.91
2019-05-23T00:58:31.491Z,70.91
2019-05-23T00:58:57.622Z,71.16
2019-05-23T00:59:50.975Z,70.68
2019-05-23T01:01:09.445Z,71.22
2019-05-23T01:02:01.756Z,71.89
2019-05-23T01:02:27.887Z,72.37
2019-05-23T01:03:20.235Z,72.85
2019-05-23T01:04:38.691Z,73.61
2019-05-23T01:05:31.024Z,73.86
2019-05-23T01:06:49.484Z,73.86
2019-05-23T01:07:41.779Z,73.9
2019-05-23T01:08:07.918Z,73.61
2019-05-23T01:09:00.251Z,73.96
2019-05-23T01:10:19.203Z,74.73
2019-05-23T01:11:11.089Z,74.73
2019-05-23T01:12:29.560Z,74.34
2019-05-23T01:13:21.882Z,74.15
2019-05-23T01:13:48.021Z,73.9
2019-05-23T01:14:40.335Z,73.99
2019-05-23T01:15:58.778Z,73.61
2019-05-23T01:16:51.102Z,73.52
2019-05-23T01:17:17.288Z,73.43
2019-05-23T01:18:09.585Z,73.71
2019-05-23T01:19:01.900Z,73.71
2019-05-23T01:19:28.072Z,73.52
2019-05-23T01:20:20.393Z,73.43
2019-05-23T01:21:38.830Z,73.43
2019-05-23T01:22:31.213Z,73.61
2019-05-23T01:22:57.354Z,73.71
2019-05-23T01:23:49.702Z,73.33
2019-05-23T01:24:42.074Z,73.43
2019-05-23T01:25:08.201Z,73.52
2019-05-23T01:26:00.534Z,73.52
2019-05-23T01:27:18.968Z,73.71
2019-05-23T01:28:11.279Z,73.52
2019-05-23T01:28:37.440Z,73.61
2019-05-23T01:29:37.305Z,73.71
2019-05-23T01:30:49.176Z,73.52
2019-05-23T01:31:41.517Z,73.52
2019-05-23T01:32:07.712Z,73.33
2019-05-23T01:33:00.026Z,73.71
2019-05-23T01:33:52.318Z,73.52
2019-05-23T01:34:18.472Z,73.52
2019-05-23T01:35:10.763Z,73.52
2019-05-23T01:36:29.229Z,73.61
2019-05-23T01:37:21.517Z,73.43
2019-05-23T01:37:47.692Z,73.52
2019-05-23T01:38:40.019Z,73.61
2019-05-23T01:39:32.350Z,73.43
2019-05-23T01:39:58.518Z,73.52
2019-05-23T01:40:50.822Z,73.61
2019-05-23T01:42:09.365Z,73.23
2019-05-23T01:43:01.630Z,73.71
2019-05-23T01:43:27.821Z,73.33
2019-05-23T01:44:20.112Z,73.33
2019-05-23T01:45:12.453Z,73.52
2019-05-23T01:45:38.592Z,73.9
2019-05-23T01:46:30.934Z,73.99
2019-05-23T01:47:49.363Z,73.99
2019-05-23T01:48:41.649Z,74.38
2019-05-23T01:49:07.785Z,74.19
2019-05-23T01:50:00.141Z,73.9
2019-05-23T01:50:52.493Z,73.9
2019-05-23T01:51:18.596Z,73.8
2019-05-23T01:52:10.935Z,73.99
2019-05-23T01:53:29.493Z,73.9
2019-05-23T01:54:21.811Z,73.8
2019-05-23T01:54:47.969Z,74.19
2019-05-23T01:55:40.306Z,74.09
2019-05-23T01:56:58.812Z,73.9
2019-05-23T01:57:51.157Z,73.9
2019-05-23T01:58:17.297Z,74.09
2019-05-23T01:59:09.637Z,74.19
2019-05-23T02:00:31.037Z,74.91
2019-05-23T02:01:49.501Z,75.78
2019-05-23T02:02:41.810Z,75.68
2019-05-23T02:03:07.956Z,76.35
2019-05-23T02:04:00.244Z,76.35
2019-05-23T02:05:18.736Z,76.35
2019-05-23T02:06:11.052Z,76.25
2019-05-23T02:07:29.588Z,77.01
2019-05-23T02:08:21.948Z,76.54
2019-05-23T02:08:48.146Z,76.16
2019-05-23T02:09:40.450Z,76.64
2019-05-23T02:10:59.027Z,76.35
2019-05-23T02:11:51.345Z,75.78
2019-05-23T02:12:17.474Z,75.68
2019-05-23T02:13:09.766Z,75.78
2019-05-23T02:14:02.061Z,75.2
2019-05-23T02:14:28.258Z,74.95
2019-05-23T02:15:20.525Z,75.01
2019-05-23T02:16:38.942Z,75.1
2019-05-23T02:17:31.263Z,75.2
2019-05-23T02:17:57.399Z,75.2
2019-05-23T02:18:49.741Z,75.01
2019-05-23T02:20:09.168Z,75.59
2019-05-23T02:21:01.488Z,75.2
2019-05-23T02:21:27.630Z,75.1
2019-05-23T02:22:19.938Z,74.73
2019-05-23T02:23:12.269Z,75.1
2019-05-23T02:23:38.408Z,75.3
2019-05-23T02:24:30.748Z,75.2
2019-05-23T02:25:49.225Z,75.78
2019-05-23T02:26:41.537Z,75.3
2019-05-23T02:27:07.680Z,75.01
2019-05-23T02:28:00.061Z,75.01
2019-05-23T02:28:52.409Z,75.68
2019-05-23T02:29:18.544Z,75.96
2019-05-23T02:30:32.072Z,75.78
2019-05-23T02:30:40.078Z,76.12
2019-05-23T02:31:32.446Z,76.21
2019-05-23T02:31:58.617Z,76.4
2019-05-23T02:32:50.963Z,76.16
2019-05-23T02:34:09.459Z,75.96
2019-05-23T02:35:01.792Z,76.03
2019-05-23T02:35:27.955Z,76.03
2019-05-23T02:36:20.331Z,75.39
2019-05-23T02:37:38.793Z,76.25
2019-05-23T02:38:31.132Z,76.25
2019-05-23T02:38:57.322Z,76.31
2019-05-23T02:39:49.677Z,76.69
2019-05-23T02:40:42.013Z,78.13
2019-05-23T02:41:08.134Z,78.22
2019-05-23T02:42:00.456Z,78.03
2019-05-23T02:43:19.023Z,78.13
2019-05-23T02:44:11.317Z,78.22
2019-05-23T02:44:37.485Z,78.6
2019-05-23T02:45:29.831Z,78.7
2019-05-23T02:46:22.138Z,78.99
2019-05-23T02:46:48.317Z,78.99
2019-05-23T02:47:40.646Z,78.6
2019-05-23T02:48:59.215Z,79.27
2019-05-23T02:49:51.507Z,79.27
2019-05-23T02:50:17.670Z,79.27
2019-05-23T02:51:10.017Z,79.36
2019-05-23T02:52:02.399Z,79.27
2019-05-23T02:52:28.530Z,79.56
2019-05-23T02:53:20.872Z,79.27
2019-05-23T02:54:39.346Z,78.89
2019-05-23T02:55:31.651Z,79.56
2019-05-23T02:55:57.833Z,79.56
2019-05-23T02:56:50.193Z,79.75
2019-05-23T02:58:08.667Z,79.56
2019-05-23T02:59:00.956Z,79.56
2019-05-23T03:00:19.486Z,80.13
2019-05-23T03:01:39.932Z,80.04
2019-05-23T03:02:32.318Z,79.65
2019-05-23T03:02:58.455Z,79.85
2019-05-23T03:03:50.833Z,79.17
2019-05-23T03:05:09.350Z,79.46
2019-05-23T03:06:01.694Z,79.46
2019-05-23T03:06:27.958Z,79.36
2019-05-23T03:07:20.245Z,79.56
2019-05-23T03:08:38.756Z,79.75
2019-05-23T03:09:31.110Z,79.85
2019-05-23T03:09:57.291Z,79.65
2019-05-23T03:10:49.588Z,80.13
2019-05-23T03:11:41.924Z,79.75
2019-05-23T03:12:08.095Z,79.94
2019-05-23T03:13:00.401Z,79.75
2019-05-23T03:14:18.849Z,80.04
2019-05-23T03:15:11.193Z,80.04
2019-05-23T03:15:37.311Z,80.22
2019-05-23T03:16:29.596Z,80.13
2019-05-23T03:17:21.934Z,80.13
2019-05-23T03:17:48.070Z,80.22
2019-05-23T03:18:40.389Z,80.04
2019-05-23T03:19:58.897Z,80.41
2019-05-23T03:20:51.181Z,80.9
2019-05-23T03:21:17.356Z,80.22
2019-05-23T03:22:09.635Z,80.41
2019-05-23T03:23:02.017Z,80.7
2019-05-23T03:23:28.167Z,80.51
2019-05-23T03:24:20.514Z,80.13
2019-05-23T03:25:38.982Z,81.27
2019-05-23T03:26:31.306Z,81.09
2019-05-23T03:26:57.436Z,81.24
2019-05-23T03:27:49.778Z,81.14
2019-05-23T03:28:42.089Z,81.09
2019-05-23T03:29:08.249Z,81.09
2019-05-23T03:30:00.571Z,80.9
2019-05-23T03:31:29.268Z,80.61
2019-05-23T03:31:48.922Z,81.18
2019-05-23T03:32:42.244Z,80.99
2019-05-23T03:33:08.453Z,81.24
2019-05-23T03:34:00.817Z,81.14
2019-05-23T03:35:19.403Z,81.24
2019-05-23T03:36:11.800Z,81.09
2019-05-23T03:36:37.968Z,81.43
2019-05-23T03:37:30.350Z,81.76
2019-05-23T03:38:48.858Z,80.9
2019-05-23T03:39:41.147Z,81.09
2019-05-23T03:40:07.310Z,80.99
2019-05-23T03:40:59.658Z,80.99
2019-05-23T03:41:52.011Z,81.33
2019-05-23T03:42:18.164Z,81.24
2019-05-23T03:43:10.512Z,81.47
2019-05-23T03:44:29.101Z,82.19
2019-05-23T03:45:21.419Z,82.19
2019-05-23T03:45:47.645Z,82.29
2019-05-23T03:46:39.921Z,83.24
2019-05-23T03:47:32.272Z,83.05
2019-05-23T03:47:58.409Z,83.05
2019-05-23T03:48:50.754Z,82.86
2019-05-23T03:50:09.229Z,83.14
2019-05-23T03:51:01.555Z,83.72
2019-05-23T03:51:27.724Z,83.72
2019-05-23T03:52:20.075Z,83.81
2019-05-23T03:53:12.362Z,83.53
2019-05-23T03:53:38.501Z,83.05
2019-05-23T03:54:30.830Z,83.24
2019-05-23T03:55:49.248Z,84.2
2019-05-23T03:56:41.590Z,84
2019-05-23T03:57:07.725Z,84.16
2019-05-23T03:58:00.021Z,84
2019-05-23T03:58:52.315Z,84
2019-05-23T03:59:18.450Z,84.06
2019-05-23T04:00:10.824Z,83.87
2019-05-23T04:01:45.872Z,84.2
2019-05-23T04:01:57.435Z,84
2019-05-23T04:02:49.823Z,83.53
2019-05-23T04:03:42.134Z,83.81
2019-05-23T04:04:08.266Z,83.72
2019-05-23T04:05:00.556Z,83.43
2019-05-23T04:06:19.088Z,83.09
2019-05-23T04:07:11.396Z,82.81
2019-05-23T04:07:37.559Z,83
2019-05-23T04:08:29.911Z,82.52
2019-05-23T04:09:22.236Z,82.04
2019-05-23T04:09:48.437Z,82.32
2019-05-23T04:10:40.757Z,81.85
2019-05-23T04:11:59.299Z,81.76
2019-05-23T04:12:51.644Z,80.99
2019-05-23T04:13:17.775Z,80.99
2019-05-23T04:14:10.100Z,80.99
2019-05-23T04:15:02.469Z,80.9
2019-05-23T04:15:28.628Z,81.18
2019-05-23T04:16:20.913Z,81.09
2019-05-23T04:17:39.353Z,80.41
2019-05-23T04:18:31.742Z,80.61
2019-05-23T04:18:57.906Z,80.41
2019-05-23T04:19:50.275Z,80.7
2019-05-23T04:21:08.741Z,80.61
2019-05-23T04:22:01.071Z,80.51
2019-05-23T04:23:19.627Z,80.61
2019-05-23T04:24:11.966Z,80.55
2019-05-23T04:24:38.172Z,80.65
2019-05-23T04:25:30.507Z,80.55
2019-05-23T04:26:48.989Z,80.27
2019-05-23T04:27:41.284Z,80.22
2019-05-23T04:28:07.447Z,80.41
2019-05-23T04:28:59.728Z,80.61
2019-05-23T04:29:52.072Z,80.41
2019-05-23T04:30:18.236Z,80.9
2019-05-23T04:31:13.072Z,81.09
2019-05-23T04:31:37.683Z,81.09
2019-05-23T04:32:31.964Z,80.99
2019-05-23T04:32:58.083Z,81.18
2019-05-23T04:33:50.433Z,81.37
2019-05-23T04:35:08.949Z,80.9
2019-05-23T04:36:01.233Z,81.09
2019-05-23T04:36:27.423Z,80.8
2019-05-23T04:37:19.762Z,80.7
2019-05-23T04:38:12.122Z,81.09
2019-05-23T04:38:38.262Z,81.03
2019-05-23T04:39:30.565Z,81.51
2019-05-23T04:40:49.081Z,80.36
2019-05-23T04:41:41.404Z,80.61
2019-05-23T04:42:07.574Z,80.46
2019-05-23T04:42:59.915Z,81.09
2019-05-23T04:43:52.327Z,80.99
2019-05-23T04:44:18.508Z,80.9
2019-05-23T04:45:11.794Z,80.99
2019-05-23T04:45:37.967Z,81.27
2019-05-23T04:46:30.302Z,80.99
2019-05-23T04:47:48.802Z,81.09
2019-05-23T04:48:41.168Z,82.04
2019-05-23T04:49:07.336Z,81.76
2019-05-23T04:49:59.658Z,81.76
2019-05-23T04:50:51.977Z,81.56
2019-05-23T04:51:18.110Z,81.66
2019-05-23T04:52:10.497Z,82.08
2019-05-23T04:53:28.932Z,81.22
2019-05-23T04:54:21.250Z,81.32
2019-05-23T04:54:47.413Z,81.32
2019-05-23T04:55:39.705Z,81.13
2019-05-23T04:56:32.017Z,80.55
2019-05-23T04:56:58.161Z,80.36
2019-05-23T04:57:50.540Z,80.55
2019-05-23T04:58:17.658Z,80.65
2019-05-23T04:59:09.949Z,80.84
2019-05-23T05:00:02.331Z,80.74
2019-05-23T05:00:28.518Z,80.55
2019-05-23T05:01:20.828Z,80.55
2019-05-23T05:02:40.271Z,80.3
2019-05-23T05:03:58.807Z,80.3
2019-05-23T05:04:51.094Z,79.16
2019-05-23T05:05:17.232Z,79.35
2019-05-23T05:06:09.533Z,79.64
2019-05-23T05:07:01.921Z,79.73
2019-05-23T05:07:28.060Z,79.73
2019-05-23T05:08:20.478Z,79.35
2019-05-23T05:09:39.155Z,79.16
2019-05-23T05:10:31.702Z,79.83
2019-05-23T05:10:57.891Z,79.64
2019-05-23T05:11:51.520Z,79.88
2019-05-23T05:12:17.755Z,80.55
2019-05-23T05:13:10.312Z,80.65
2019-05-23T05:14:28.722Z,81.03
2019-05-23T05:15:21.064Z,81.03
2019-05-23T05:16:39.492Z,81.03
2019-05-23T05:17:31.830Z,81.41
2019-05-23T05:17:57.964Z,81.03
2019-05-23T05:18:50.284Z,81.41
2019-05-23T05:20:08.918Z,81.7
2019-05-23T05:21:01.289Z,81.03
2019-05-23T05:21:27.500Z,82.08
2019-05-23T05:22:19.885Z,81.7
2019-05-23T05:23:12.169Z,81.7
2019-05-23T05:23:38.328Z,81.89
2019-05-23T05:24:30.685Z,80.93
2019-05-23T05:25:49.185Z,81.13
2019-05-23T05:26:41.506Z,80.93
2019-05-23T05:27:07.638Z,81.32
2019-05-23T05:27:59.955Z,80.65
2019-05-23T05:28:52.255Z,80.46
2019-05-23T05:29:18.394Z,80.46
2019-05-23T05:30:10.720Z,80.17
2019-05-23T05:31:29.161Z,79.88
2019-05-23T05:32:21.575Z,80.17
2019-05-23T05:32:49.711Z,80.07
2019-05-23T05:33:42.059Z,79.98
2019-05-23T05:34:08.175Z,80.27
2019-05-23T05:35:00.581Z,80.84
2019-05-23T05:36:19.119Z,80.84
2019-05-23T05:37:11.415Z,81.13
2019-05-23T05:37:37.607Z,80.93
2019-05-23T05:38:29.924Z,80.74
2019-05-23T05:39:22.290Z,80.55
2019-05-23T05:39:48.464Z,80.36
2019-05-23T05:40:40.853Z,80.65
2019-05-23T05:41:59.271Z,80.55
2019-05-23T05:42:51.652Z,80.74
2019-05-23T05:43:17.807Z,80.55
2019-05-23T05:44:11.707Z,80.55
2019-05-23T05:44:37.282Z,80.65
2019-05-23T05:45:29.622Z,80.36
2019-05-23T05:46:21.945Z,80.65
2019-05-23T05:46:48.114Z,80.84
2019-05-23T05:47:40.530Z,80.36
2019-05-23T05:48:59.122Z,80.55
2019-05-23T05:49:51.460Z,80.55
2019-05-23T05:50:17.760Z,80.46
2019-05-23T05:51:10.178Z,80.65
2019-05-23T05:52:28.657Z,80.74
2019-05-23T05:53:21.006Z,80.79
2019-05-23T05:54:39.526Z,80.88
2019-05-23T05:55:58.637Z,80.3
2019-05-23T05:56:50.974Z,80.46
2019-05-23T05:58:09.510Z,80.84
2019-05-23T05:59:01.918Z,80.93
2019-05-23T05:59:28.052Z,81.22
2019-05-23T06:00:20.387Z,80.79
2019-05-23T06:01:40.897Z,80.3
2019-05-23T06:03:04.031Z,80.11
2019-05-23T06:03:51.790Z,80.11
2019-05-23T06:04:18.026Z,79.54
2019-05-23T06:05:10.358Z,79.58
2019-05-23T06:06:28.938Z,79.2
2019-05-23T06:07:21.655Z,78.97
2019-05-23T06:07:47.793Z,79.39
2019-05-23T06:08:40.344Z,79.39
2019-05-23T06:09:58.861Z,78.63
2019-05-23T06:10:51.187Z,78.81
2019-05-23T06:11:17.325Z,78.34
2019-05-23T06:12:09.675Z,78.53
2019-05-23T06:13:02.495Z,78.14
2019-05-23T06:13:28.752Z,78.14
2019-05-23T06:14:21.110Z,78.34
2019-05-23T06:14:47.506Z,78.24
2019-05-23T06:15:39.945Z,77.95
2019-05-23T06:16:32.275Z,78.34
2019-05-23T06:16:58.414Z,78.14
2019-05-23T06:17:50.877Z,78.81
2019-05-23T06:19:09.389Z,79.87
2019-05-23T06:20:01.701Z,79.68
2019-05-23T06:20:27.892Z,79.64
2019-05-23T06:21:20.359Z,79.25
2019-05-23T06:22:39.132Z,79.77
2019-05-23T06:23:31.421Z,79.93
2019-05-23T06:23:57.706Z,80.06
2019-05-23T06:24:54.153Z,79.44
2019-05-23T06:25:17.539Z,80.11
2019-05-23T06:26:09.935Z,79.58
2019-05-23T06:27:02.251Z,79.2
2019-05-23T06:27:28.403Z,79.14
2019-05-23T06:28:20.734Z,77.61
2019-05-23T06:29:39.291Z,77.33
2019-05-23T06:30:32.792Z,77.42
2019-05-23T06:30:58.101Z,77.33
2019-05-23T06:31:50.481Z,76.75
2019-05-23T06:33:22.309Z,76.65
2019-05-23T06:34:02.279Z,76.37
2019-05-23T06:34:28.460Z,76.21
2019-05-23T06:35:20.767Z,75.16
2019-05-23T06:36:39.258Z,74.97
2019-05-23T06:37:34.264Z,74.26
2019-05-23T06:37:58.853Z,75.26
2019-05-23T06:38:51.189Z,74.87
2019-05-23T06:39:17.388Z,74.49
2019-05-23T06:40:09.746Z,74.77
2019-05-23T06:41:02.091Z,74.87
2019-05-23T06:41:28.228Z,74.97
2019-05-23T06:42:20.621Z,74.43
2019-05-23T06:43:39.071Z,73.95
2019-05-23T06:44:31.469Z,73.47
2019-05-23T06:44:57.605Z,73.66
2019-05-23T06:45:49.958Z,73.95
2019-05-23T06:46:42.279Z,74.52
2019-05-23T06:47:08.451Z,73.95
2019-05-23T06:48:00.794Z,73.57
2019-05-23T06:49:19.258Z,72.9
2019-05-23T06:50:11.541Z,72.17
2019-05-23T06:50:37.710Z,72.36
2019-05-23T06:51:30.126Z,71.69
2019-05-23T06:52:22.428Z,71.5
2019-05-23T06:52:48.572Z,71.69
2019-05-23T06:53:41.158Z,71.21
2019-05-23T06:54:07.338Z,71.5
2019-05-23T06:54:59.974Z,70.54
2019-05-23T06:55:52.067Z,70.5
2019-05-23T06:56:18.224Z,70.64
2019-05-23T06:57:10.519Z,70.54
2019-05-23T06:58:29.186Z,69.52
2019-05-23T06:59:21.384Z,68.88
2019-05-23T06:59:47.577Z,67.44
2019-05-23T07:00:40.045Z,67.29
2019-05-23T07:01:32.444Z,66.33
2019-05-23T07:01:58.584Z,65.59
2019-05-23T07:02:50.979Z,65.14
2019-05-23T07:04:10.519Z,61.91
2019-05-23T07:05:28.947Z,62.06
2019-05-23T07:06:21.354Z,59.94
2019-05-23T07:06:47.526Z,58.82
2019-05-23T07:07:39.881Z,57.02
2019-05-23T07:08:59.506Z,55.24
2019-05-23T07:09:51.803Z,53.99
2019-05-23T07:10:17.978Z,53.44
2019-05-23T07:11:10.368Z,52.83
2019-05-23T07:12:28.869Z,52.86
2019-05-23T07:13:21.165Z,51.53
2019-05-23T07:13:47.311Z,50.59
2019-05-23T07:14:39.655Z,49.7
2019-05-23T07:15:32.046Z,50.57
2019-05-23T07:15:58.195Z,50.67
2019-05-23T07:16:50.601Z,50.76
2019-05-23T07:18:09.096Z,49.37
2019-05-23T07:19:01.398Z,48.03
2019-05-23T07:19:27.568Z,48.13
2019-05-23T07:20:19.940Z,47.65
2019-05-23T07:21:12.361Z,49.05
2019-05-23T07:21:38.521Z,49.53
2019-05-23T07:22:30.886Z,49.44
2019-05-23T07:23:49.493Z,47.74
2019-05-23T07:24:56.813Z,46.44
2019-05-23T07:25:09.952Z,45.49
2019-05-23T07:26:02.456Z,44.33
2019-05-23T07:26:28.557Z,44.13
2019-05-23T07:27:20.912Z,44.23
2019-05-23T07:28:39.574Z,44.35
2019-05-23T07:29:31.913Z,43.96
2019-05-23T07:29:58.074Z,44.26
2019-05-23T07:30:50.407Z,43.99
2019-05-23T07:32:08.868Z,40.52
2019-05-23T07:33:01.268Z,39.95
2019-05-23T07:33:27.457Z,39.88
2019-05-23T07:34:20.889Z,39.98
2019-05-23T07:35:39.390Z,40.15
2019-05-23T07:36:31.800Z,40.66
2019-05-23T07:36:57.995Z,41
2019-05-23T07:37:50.292Z,39.88
2019-05-23T07:39:11.447Z,39.78
2019-05-23T07:40:01.210Z,39.06
2019-05-23T07:40:27.384Z,37.99
2019-05-23T07:41:19.796Z,35.99
2019-05-23T07:42:41.437Z,35.89
2019-05-23T07:43:08.660Z,35.41
2019-05-23T07:44:01.337Z,35.39
2019-05-23T07:44:27.779Z,36.34
2019-05-23T07:45:21.298Z,35.6
2019-05-23T07:45:47.709Z,35.41
2019-05-23T07:46:40.137Z,35.5
2019-05-23T07:47:59.623Z,35.96
2019-05-23T07:48:51.931Z,37.01
2019-05-23T07:49:18.094Z,37.57
2019-05-23T07:50:10.408Z,37.49
2019-05-23T07:51:29.793Z,36.28
2019-05-23T07:52:22.150Z,35.97
2019-05-23T07:52:48.291Z,35.42
2019-05-23T07:53:43.641Z,33.96
2019-05-23T07:54:07.812Z,34.17
2019-05-23T07:55:00.198Z,33.04
2019-05-23T07:56:18.663Z,32.08
2019-05-23T07:57:11.008Z,31.31
2019-05-23T07:58:29.893Z,31.85
2019-05-23T07:59:22.269Z,32.7
2019-05-23T07:59:48.502Z,32.7
2019-05-23T08:00:40.858Z,32.7
2019-05-23T08:01:59.342Z,31.66
2019-05-23T08:03:18.881Z,32.23
2019-05-23T08:04:20.910Z,32.34
2019-05-23T08:04:39.286Z,31.85
2019-05-23T08:05:31.650Z,32.03
2019-05-23T08:05:57.796Z,33.17
2019-05-23T08:06:50.121Z,33.39
2019-05-23T08:08:08.889Z,31.93
2019-05-23T08:09:01.227Z,31.07
2019-05-23T08:09:27.369Z,31.25
2019-05-23T08:10:32.946Z,31.38
2019-05-23T08:11:39.236Z,31.37
2019-05-23T08:12:31.654Z,30.7
2019-05-23T08:12:57.872Z,30.42
2019-05-23T08:13:50.269Z,30.52
2019-05-23T08:15:08.745Z,31.01
2019-05-23T08:16:01.095Z,30.24
2019-05-23T08:16:27.266Z,29.95
2019-05-23T08:17:19.597Z,30.58
2019-05-23T08:18:11.900Z,32.15
2019-05-23T08:18:38.051Z,31.76
2019-05-23T08:19:30.779Z,30.71
2019-05-23T08:19:57.944Z,30.51
2019-05-23T08:20:50.498Z,31.16
2019-05-23T08:22:09.959Z,35.08
2019-05-23T08:23:29.116Z,33.18
2019-05-23T08:24:21.635Z,32.34
2019-05-23T08:24:51.033Z,31.77
2019-05-23T08:25:40.400Z,30.54
2019-05-23T08:26:59.345Z,28.83
2019-05-23T08:27:51.869Z,28.05
2019-05-23T08:28:18.162Z,29.44
2019-05-23T08:29:25.134Z,30.7
2019-05-23T08:29:39.742Z,31.19
2019-05-23T08:30:59.733Z,30.6
2019-05-23T08:31:52.101Z,29.75
2019-05-23T08:32:18.240Z,29.57
2019-05-23T08:33:10.581Z,29.56
2019-05-23T08:34:41.115Z,32.31
2019-05-23T08:35:49.577Z,31.67
2019-05-23T08:36:41.879Z,29.67
2019-05-23T08:37:08.059Z,28.91
2019-05-23T08:38:00.379Z,28.26
2019-05-23T08:39:18.923Z,26.7
2019-05-23T08:40:11.265Z,26.5
2019-05-23T08:40:37.406Z,26.68
2019-05-23T08:41:29.706Z,26.98
2019-05-23T08:42:22.133Z,27.65
2019-05-23T08:42:48.294Z,27.45
2019-05-23T08:43:40.643Z,27.2
2019-05-23T08:44:59.176Z,27.47
2019-05-23T08:45:51.527Z,26.67
2019-05-23T08:46:17.837Z,26.79
2019-05-23T08:47:10.199Z,26.78
2019-05-23T08:48:28.709Z,26.7
2019-05-23T08:49:21.081Z,26.32
2019-05-23T08:49:47.269Z,26.22
2019-05-23T08:50:39.561Z,25.13
2019-05-23T08:51:31.885Z,25.9
2019-05-23T08:51:58.561Z,26.1
2019-05-23T08:52:51.129Z,26.22
2019-05-23T08:53:17.322Z,25.37
2019-05-23T08:54:09.687Z,24.51
2019-05-23T08:55:02.084Z,23.83
2019-05-23T08:55:28.353Z,23.63
2019-05-23T08:56:20.799Z,23.45
2019-05-23T08:57:39.340Z,23.05
2019-05-23T08:58:31.710Z,23.24
2019-05-23T08:58:57.908Z,22.86
2019-05-23T08:59:52.636Z,22.92
2019-05-23T09:00:19.891Z,23.81
2019-05-23T09:00:49.293Z,23.14
2019-05-23T09:01:41.660Z,22.88
2019-05-23T09:02:07.839Z,22.39
2019-05-23T09:03:00.188Z,21.69
2019-05-23T09:04:18.722Z,22.35
2019-05-23T09:05:12.121Z,22.25
2019-05-23T09:05:38.316Z,22.46
2019-05-23T09:06:30.649Z,22.55
2019-05-23T09:07:49.248Z,23.33
2019-05-23T09:08:41.575Z,22.67
2019-05-23T09:09:27.369Z,22.28
2019-05-23T09:10:01.105Z,22.84
2019-05-23T09:10:27.270Z,23.59
2019-05-23T09:11:19.595Z,24.27
2019-05-23T09:12:11.933Z,23.13
2019-05-23T09:12:38.087Z,23.14
2019-05-23T09:13:30.465Z,23.33
2019-05-23T09:14:49.008Z,22.67
2019-05-23T09:15:41.416Z,22.95
2019-05-23T09:16:07.567Z,22.74
2019-05-23T09:16:59.923Z,22.72
2019-05-23T09:17:54.009Z,23.1
2019-05-23T09:18:19.449Z,23.22
2019-05-23T09:19:11.750Z,22.83
2019-05-23T09:19:37.979Z,22.25
2019-05-23T09:20:30.303Z,22.17
2019-05-23T09:21:48.853Z,21.39
2019-05-23T09:22:41.262Z,20.33
2019-05-23T09:23:07.410Z,20.01
2019-05-23T09:23:59.800Z,20.22
2019-05-23T09:24:52.175Z,19.84
2019-05-23T09:25:18.330Z,19.94
2019-05-23T09:26:11.217Z,20.54
2019-05-23T09:26:37.356Z,19.95
2019-05-23T09:27:29.672Z,19.85
2019-05-23T09:28:22.005Z,19.95
2019-05-23T09:28:48.186Z,19.26
2019-05-23T09:29:40.553Z,19.17
2019-05-23T09:30:59.267Z,19.38
2019-05-23T09:31:51.580Z,18.71
2019-05-23T09:32:17.750Z,19.36
2019-05-23T09:33:10.125Z,22.13
2019-05-23T09:34:02.447Z,22.99
2019-05-23T09:34:28.632Z,23.31
2019-05-23T09:35:22.449Z,22.46
2019-05-23T09:35:48.165Z,21.58
2019-05-23T09:36:40.555Z,22.72
2019-05-23T09:37:59.127Z,22.81
2019-05-23T09:38:51.519Z,22.45
2019-05-23T09:39:17.689Z,22.16
2019-05-23T09:40:10.055Z,22.91
2019-05-23T09:41:02.428Z,21.25
2019-05-23T09:41:28.646Z,20.86
2019-05-23T09:42:21.612Z,21.66
2019-05-23T09:42:47.816Z,21.37
2019-05-23T09:43:40.173Z,20.22
2019-05-23T09:44:58.617Z,18.96
2019-05-23T09:45:50.969Z,19.16
2019-05-23T09:47:09.464Z,18
2019-05-23T09:48:01.846Z,18.25
2019-05-23T09:48:28.051Z,19.12
2019-05-23T09:49:20.463Z,19.33
2019-05-23T09:50:40.016Z,18.68
2019-05-23T09:51:32.366Z,18.79
2019-05-23T09:52:01.140Z,18.01
2019-05-23T09:52:51.860Z,18.3
2019-05-23T09:53:18.025Z,18.11
2019-05-23T09:54:10.415Z,17.72
2019-05-23T09:55:28.958Z,17.72
2019-05-23T09:56:21.373Z,17.63
2019-05-23T09:56:47.521Z,16.85
2019-05-23T09:57:39.847Z,16.95
2019-05-23T09:58:32.311Z,16.85
2019-05-23T09:58:58.457Z,16.16
2019-05-23T09:59:50.798Z,16.66
2019-05-23T10:01:09.302Z,19.78
2019-05-23T10:02:01.721Z,20.47
2019-05-23T10:02:27.948Z,20.09
2019-05-23T10:03:20.295Z,20.01
2019-05-23T10:04:38.848Z,19.65
2019-05-23T10:05:42.471Z,18.69
2019-05-23T10:05:59.372Z,18.19
2019-05-23T10:06:51.812Z,17.91
2019-05-23T10:07:17.981Z,18.41
2019-05-23T10:08:10.344Z,17.62
2019-05-23T10:09:28.884Z,17.12
2019-05-23T10:10:21.246Z,17.8
2019-05-23T10:10:47.413Z,18.4
2019-05-23T10:11:39.791Z,17.71
2019-05-23T10:12:32.178Z,17.82
2019-05-23T10:12:58.346Z,17.72
2019-05-23T10:14:18.847Z,18.04
2019-05-23T10:15:11.206Z,17.54
2019-05-23T10:15:37.378Z,17.62
2019-05-23T10:16:29.771Z,17.98
2019-05-23T10:17:22.182Z,19.64
2019-05-23T10:17:48.337Z,19.64
2019-05-23T10:18:41.700Z,19.74
2019-05-23T10:19:07.866Z,20.04
2019-05-23T10:20:00.261Z,19.57
2019-05-23T10:21:18.799Z,18.31
2019-05-23T10:22:11.143Z,17.72
2019-05-23T10:22:37.305Z,17.72
2019-05-23T10:23:29.644Z,17.03
2019-05-23T10:24:21.986Z,17.81
2019-05-23T10:24:48.145Z,17.81
2019-05-23T10:25:40.563Z,17.81
2019-05-23T10:26:59.095Z,18.01
2019-05-23T10:27:51.442Z,17.43
2019-05-23T10:28:17.635Z,17.62
2019-05-23T10:29:09.942Z,17.12
2019-05-23T10:30:02.296Z,17.6
2019-05-23T10:30:28.469Z,18.38
2019-05-23T10:31:20.806Z,18.35
2019-05-23T10:32:39.307Z,18.25
2019-05-23T10:33:58.872Z,19.91
2019-05-23T10:34:51.281Z,19.82
2019-05-23T10:35:17.468Z,20.22
2019-05-23T10:36:10.784Z,18.86
2019-05-23T10:37:29.348Z,19.75
2019-05-23T10:38:21.710Z,18.66
2019-05-23T10:38:47.883Z,18.96
2019-05-23T10:39:40.247Z,19.06
2019-05-23T10:40:58.866Z,19.45
2019-05-23T10:41:51.214Z,20.47
2019-05-23T10:42:17.397Z,20.47